Chance, Alabama
Current Conditions -  °F | °C
As of 12:53 PM on Tuesday 21 Oct 2014 (Local Time) from KGZH Reporting Station
Clear Clear  
Wind Chill: 78°   Ceiling: Unl
Heat Index: 78°   Visibility: 10mi
Dew Point: 46°   Wind: 6mph
Humidity: 32%   Direction: 10°N
Pressure: 30.03"   Gusts: NA
Location:  31.8534°N, 87.5753°W
Report Text: KGZH 211753Z AUTO 01005KT 10SM CLR 26/08 A3003 RMK AO2 SLP166 T02560078 10261 20083 58016
Loading
Personal Weather Stations






























Interactive Weather Map
Tropical Storm Tracking
New forecast layout! Learn more

10-Day Weather Forecast

Advertisements
Track Severe Weather on mobile